sensor_id;sensor_type;location;lat;lon;timestamp;P1;P2;P0
67802;PMS5003;72185;51.378;-1.342;2023-12-22T00:01:51;3;3;
67802;PMS5003;72185;51.378;-1.342;2023-12-22T00:04:17;2;1;
67802;PMS5003;72185;51.378;-1.342;2023-12-22T00:06:42;2;2;
67802;PMS5003;72185;51.378;-1.342;2023-12-22T00:09:08;3;2;
67802;PMS5003;72185;51.378;-1.342;2023-12-22T00:11:33;3;3;
67802;PMS5003;72185;51.378;-1.342;2023-12-22T00:13:59;2;1;
67802;PMS5003;72185;51.378;-1.342;2023-12-22T00:16:25;1;1;
67802;PMS5003;72185;51.378;-1.342;2023-12-22T00:18:50;2;2;
67802;PMS5003;72185;51.378;-1.342;2023-12-22T00:21:16;1;1;
67802;PMS5003;72185;51.378;-1.342;2023-12-22T00:23:41;2;2;
67802;PMS5003;72185;51.378;-1.342;2023-12-22T00:26:07;3;2;
67802;PMS5003;72185;51.378;-1.342;2023-12-22T00:28:33;2;2;
67802;PMS5003;72185;51.378;-1.342;2023-12-22T00:30:58;1;1;
67802;PMS5003;72185;51.378;-1.342;2023-12-22T00:33:24;2;2;
67802;PMS5003;72185;51.378;-1.342;2023-12-22T00:35:50;1;1;
67802;PMS5003;72185;51.378;-1.342;2023-12-22T00:38:15;2;2;
67802;PMS5003;72185;51.378;-1.342;2023-12-22T00:40:41;1;1;
67802;PMS5003;72185;51.378;-1.342;2023-12-22T00:43:06;1;1;
67802;PMS5003;72185;51.378;-1.342;2023-12-22T00:45:32;0;0;
67802;PMS5003;72185;51.378;-1.342;2023-12-22T00:47:58;1;0;
67802;PMS5003;72185;51.378;-1.342;2023-12-22T00:50:23;1;1;
67802;PMS5003;72185;51.378;-1.342;2023-12-22T00:52:49;1;1;
67802;PMS5003;72185;51.378;-1.342;2023-12-22T00:55:14;2;1;
67802;PMS5003;72185;51.378;-1.342;2023-12-22T00:57:40;1;1;
67802;PMS5003;72185;51.378;-1.342;2023-12-22T01:00:06;3;1;
67802;PMS5003;72185;51.378;-1.342;2023-12-22T01:02:31;1;1;
67802;PMS5003;72185;51.378;-1.342;2023-12-22T01:04:57;1;1;
67802;PMS5003;72185;51.378;-1.342;2023-12-22T01:07:22;3;2;
67802;PMS5003;72185;51.378;-1.342;2023-12-22T01:09:48;2;1;
67802;PMS5003;72185;51.378;-1.342;2023-12-22T01:12:13;1;1;
67802;PMS5003;72185;51.378;-1.342;2023-12-22T01:14:39;2;2;
67802;PMS5003;72185;51.378;-1.342;2023-12-22T01:17:05;1;1;
67802;PMS5003;72185;51.378;-1.342;2023-12-22T01:19:30;2;2;
67802;PMS5003;72185;51.378;-1.342;2023-12-22T01:21:56;2;2;
67802;PMS5003;72185;51.378;-1.342;2023-12-22T01:24:22;2;2;
67802;PMS5003;72185;51.378;-1.342;2023-12-22T01:26:47;1;1;
67802;PMS5003;72185;51.378;-1.342;2023-12-22T01:29:13;1;1;
67802;PMS5003;72185;51.378;-1.342;2023-12-22T01:31:38;1;1;
67802;PMS5003;72185;51.378;-1.342;2023-12-22T01:34:04;1;1;
67802;PMS5003;72185;51.378;-1.342;2023-12-22T01:36:30;1;1;
67802;PMS5003;72185;51.378;-1.342;2023-12-22T01:38:55;1;1;
67802;PMS5003;72185;51.378;-1.342;2023-12-22T01:41:21;1;1;
67802;PMS5003;72185;51.378;-1.342;2023-12-22T01:43:46;2;1;
67802;PMS5003;72185;51.378;-1.342;2023-12-22T01:46:12;1;1;
67802;PMS5003;72185;51.378;-1.342;2023-12-22T01:48:38;0;0;
67802;PMS5003;72185;51.378;-1.342;2023-12-22T01:51:03;0;0;
67802;PMS5003;72185;51.378;-1.342;2023-12-22T01:53:29;0;0;
67802;PMS5003;72185;51.378;-1.342;2023-12-22T01:55:55;1;1;
67802;PMS5003;72185;51.378;-1.342;2023-12-22T01:58:20;1;1;
67802;PMS5003;72185;51.378;-1.342;2023-12-22T02:00:46;0;0;
67802;PMS5003;72185;51.378;-1.342;2023-12-22T02:03:11;1;1;
67802;PMS5003;72185;51.378;-1.342;2023-12-22T02:05:37;1;1;
67802;PMS5003;72185;51.378;-1.342;2023-12-22T02:08:03;1;1;
67802;PMS5003;72185;51.378;-1.342;2023-12-22T02:10:28;1;1;
67802;PMS5003;72185;51.378;-1.342;2023-12-22T02:12:53;1;1;
67802;PMS5003;72185;51.378;-1.342;2023-12-22T02:15:19;1;1;
67802;PMS5003;72185;51.378;-1.342;2023-12-22T02:17:48;1;1;
67802;PMS5003;72185;51.378;-1.342;2023-12-22T02:20:10;0;0;
67802;PMS5003;72185;51.378;-1.342;2023-12-22T02:22:36;1;1;
67802;PMS5003;72185;51.378;-1.342;2023-12-22T02:25:02;1;1;
67802;PMS5003;72185;51.378;-1.342;2023-12-22T02:27:28;2;2;
67802;PMS5003;72185;51.378;-1.342;2023-12-22T02:29:54;1;1;
67802;PMS5003;72185;51.378;-1.342;2023-12-22T02:32:21;2;2;
67802;PMS5003;72185;51.378;-1.342;2023-12-22T02:34:44;2;1;
67802;PMS5003;72185;51.378;-1.342;2023-12-22T02:37:10;0;0;
67802;PMS5003;72185;51.378;-1.342;2023-12-22T02:39:35;1;1;
67802;PMS5003;72185;51.378;-1.342;2023-12-22T02:42:01;2;1;
67802;PMS5003;72185;51.378;-1.342;2023-12-22T02:44:26;1;1;
67802;PMS5003;72185;51.378;-1.342;2023-12-22T02:46:52;1;1;
67802;PMS5003;72185;51.378;-1.342;2023-12-22T02:49:17;1;1;
67802;PMS5003;72185;51.378;-1.342;2023-12-22T02:51:43;1;1;
67802;PMS5003;72185;51.378;-1.342;2023-12-22T02:54:09;0;0;
67802;PMS5003;72185;51.378;-1.342;2023-12-22T02:56:34;1;1;
67802;PMS5003;72185;51.378;-1.342;2023-12-22T02:59:00;1;1;
67802;PMS5003;72185;51.378;-1.342;2023-12-22T03:01:25;1;1;
67802;PMS5003;72185;51.378;-1.342;2023-12-22T03:03:51;0;0;
67802;PMS5003;72185;51.378;-1.342;2023-12-22T03:06:17;1;1;
67802;PMS5003;72185;51.378;-1.342;2023-12-22T03:08:42;0;0;
67802;PMS5003;72185;51.378;-1.342;2023-12-22T03:11:08;0;0;
67802;PMS5003;72185;51.378;-1.342;2023-12-22T03:13:34;2;1;
67802;PMS5003;72185;51.378;-1.342;2023-12-22T03:15:59;0;0;
67802;PMS5003;72185;51.378;-1.342;2023-12-22T03:18:25;1;1;
67802;PMS5003;72185;51.378;-1.342;2023-12-22T03:20:50;1;1;
67802;PMS5003;72185;51.378;-1.342;2023-12-22T03:23:16;0;0;
67802;PMS5003;72185;51.378;-1.342;2023-12-22T03:25:41;1;1;
67802;PMS5003;72185;51.378;-1.342;2023-12-22T03:28:07;1;1;
67802;PMS5003;72185;51.378;-1.342;2023-12-22T03:30:33;1;1;
67802;PMS5003;72185;51.378;-1.342;2023-12-22T03:32:58;1;1;
67802;PMS5003;72185;51.378;-1.342;2023-12-22T03:35:24;1;1;
67802;PMS5003;72185;51.378;-1.342;2023-12-22T03:37:49;1;1;
67802;PMS5003;72185;51.378;-1.342;2023-12-22T03:40:15;1;1;
67802;PMS5003;72185;51.378;-1.342;2023-12-22T03:42:41;1;1;
67802;PMS5003;72185;51.378;-1.342;2023-12-22T03:45:07;1;1;
67802;PMS5003;72185;51.378;-1.342;2023-12-22T03:47:32;1;1;
67802;PMS5003;72185;51.378;-1.342;2023-12-22T03:49:57;1;1;
67802;PMS5003;72185;51.378;-1.342;2023-12-22T03:52:23;1;1;
67802;PMS5003;72185;51.378;-1.342;2023-12-22T03:54:49;1;1;
67802;PMS5003;72185;51.378;-1.342;2023-12-22T03:57:14;1;1;
67802;PMS5003;72185;51.378;-1.342;2023-12-22T03:59:40;0;0;
67802;PMS5003;72185;51.378;-1.342;2023-12-22T04:02:05;1;1;
67802;PMS5003;72185;51.378;-1.342;2023-12-22T04:04:31;1;1;
67802;PMS5003;72185;51.378;-1.342;2023-12-22T04:06:56;1;1;
67802;PMS5003;72185;51.378;-1.342;2023-12-22T04:09:22;2;2;
67802;PMS5003;72185;51.378;-1.342;2023-12-22T04:11:48;2;1;
67802;PMS5003;72185;51.378;-1.342;2023-12-22T04:14:13;2;1;
67802;PMS5003;72185;51.378;-1.342;2023-12-22T04:16:39;1;1;
67802;PMS5003;72185;51.378;-1.342;2023-12-22T04:19:05;1;1;
67802;PMS5003;72185;51.378;-1.342;2023-12-22T04:21:30;1;1;
67802;PMS5003;72185;51.378;-1.342;2023-12-22T04:23:56;1;1;
67802;PMS5003;72185;51.378;-1.342;2023-12-22T04:26:21;1;1;
67802;PMS5003;72185;51.378;-1.342;2023-12-22T04:28:47;0;0;
67802;PMS5003;72185;51.378;-1.342;2023-12-22T04:31:12;2;1;
67802;PMS5003;72185;51.378;-1.342;2023-12-22T04:33:38;0;0;
67802;PMS5003;72185;51.378;-1.342;2023-12-22T04:36:04;2;2;
67802;PMS5003;72185;51.378;-1.342;2023-12-22T04:38:29;2;2;
67802;PMS5003;72185;51.378;-1.342;2023-12-22T04:40:55;3;1;
67802;PMS5003;72185;51.378;-1.342;2023-12-22T04:43:20;1;1;
67802;PMS5003;72185;51.378;-1.342;2023-12-22T04:45:46;0;0;
67802;PMS5003;72185;51.378;-1.342;2023-12-22T04:48:12;1;1;
67802;PMS5003;72185;51.378;-1.342;2023-12-22T04:50:37;3;1;
67802;PMS5003;72185;51.378;-1.342;2023-12-22T04:53:03;0;0;
67802;PMS5003;72185;51.378;-1.342;2023-12-22T04:55:28;0;0;
67802;PMS5003;72185;51.378;-1.342;2023-12-22T04:57:54;0;0;
67802;PMS5003;72185;51.378;-1.342;2023-12-22T05:00:20;1;1;
67802;PMS5003;72185;51.378;-1.342;2023-12-22T05:02:45;0;0;
67802;PMS5003;72185;51.378;-1.342;2023-12-22T05:05:11;1;1;
67802;PMS5003;72185;51.378;-1.342;2023-12-22T05:07:37;1;1;
67802;PMS5003;72185;51.378;-1.342;2023-12-22T05:10:02;1;1;
67802;PMS5003;72185;51.378;-1.342;2023-12-22T05:12:28;0;0;
67802;PMS5003;72185;51.378;-1.342;2023-12-22T05:14:53;2;2;
67802;PMS5003;72185;51.378;-1.342;2023-12-22T05:17:19;1;1;
67802;PMS5003;72185;51.378;-1.342;2023-12-22T05:19:45;1;1;
67802;PMS5003;72185;51.378;-1.342;2023-12-22T05:22:10;0;0;
67802;PMS5003;72185;51.378;-1.342;2023-12-22T05:24:36;0;0;
67802;PMS5003;72185;51.378;-1.342;2023-12-22T05:27:01;0;0;
67802;PMS5003;72185;51.378;-1.342;2023-12-22T05:29:27;1;1;
67802;PMS5003;72185;51.378;-1.342;2023-12-22T05:31:53;1;1;
67802;PMS5003;72185;51.378;-1.342;2023-12-22T05:34:18;0;0;
67802;PMS5003;72185;51.378;-1.342;2023-12-22T05:36:44;0;0;
67802;PMS5003;72185;51.378;-1.342;2023-12-22T05:39:09;1;1;
67802;PMS5003;72185;51.378;-1.342;2023-12-22T05:41:35;0;0;
67802;PMS5003;72185;51.378;-1.342;2023-12-22T05:44:01;1;1;
67802;PMS5003;72185;51.378;-1.342;2023-12-22T05:46:26;0;0;
67802;PMS5003;72185;51.378;-1.342;2023-12-22T05:48:52;0;0;
67802;PMS5003;72185;51.378;-1.342;2023-12-22T05:51:17;1;1;
67802;PMS5003;72185;51.378;-1.342;2023-12-22T05:53:43;0;0;
67802;PMS5003;72185;51.378;-1.342;2023-12-22T05:58:34;1;1;
67802;PMS5003;72185;51.378;-1.342;2023-12-22T06:01:00;0;0;
67802;PMS5003;72185;51.378;-1.342;2023-12-22T06:03:26;1;1;
67802;PMS5003;72185;51.378;-1.342;2023-12-22T06:05:51;0;0;
67802;PMS5003;72185;51.378;-1.342;2023-12-22T06:08:17;0;0;
67802;PMS5003;72185;51.378;-1.342;2023-12-22T06:10:42;0;0;
67802;PMS5003;72185;51.378;-1.342;2023-12-22T06:13:08;0;0;
67802;PMS5003;72185;51.378;-1.342;2023-12-22T06:15:34;0;0;
67802;PMS5003;72185;51.378;-1.342;2023-12-22T06:17:59;0;0;
67802;PMS5003;72185;51.378;-1.342;2023-12-22T06:20:25;0;0;
67802;PMS5003;72185;51.378;-1.342;2023-12-22T06:22:50;0;0;
67802;PMS5003;72185;51.378;-1.342;2023-12-22T06:25:16;0;0;
67802;PMS5003;72185;51.378;-1.342;2023-12-22T06:27:42;0;0;
67802;PMS5003;72185;51.378;-1.342;2023-12-22T06:30:08;0;0;
67802;PMS5003;72185;51.378;-1.342;2023-12-22T06:32:33;0;0;
67802;PMS5003;72185;51.378;-1.342;2023-12-22T06:34:58;0;0;
67802;PMS5003;72185;51.378;-1.342;2023-12-22T06:37:24;0;0;
67802;PMS5003;72185;51.378;-1.342;2023-12-22T06:39:50;0;0;
67802;PMS5003;72185;51.378;-1.342;2023-12-22T06:42:15;0;0;
67802;PMS5003;72185;51.378;-1.342;2023-12-22T06:44:41;0;0;
67802;PMS5003;72185;51.378;-1.342;2023-12-22T06:47:06;0;0;
67802;PMS5003;72185;51.378;-1.342;2023-12-22T06:49:32;0;0;
67802;PMS5003;72185;51.378;-1.342;2023-12-22T06:51:58;0;0;
67802;PMS5003;72185;51.378;-1.342;2023-12-22T06:54:23;0;0;
67802;PMS5003;72185;51.378;-1.342;2023-12-22T06:56:49;0;0;
67802;PMS5003;72185;51.378;-1.342;2023-12-22T06:59:14;0;0;
67802;PMS5003;72185;51.378;-1.342;2023-12-22T07:01:40;0;0;
67802;PMS5003;72185;51.378;-1.342;2023-12-22T07:04:05;0;0;
67802;PMS5003;72185;51.378;-1.342;2023-12-22T07:06:31;0;0;
67802;PMS5003;72185;51.378;-1.342;2023-12-22T07:08:57;0;0;
67802;PMS5003;72185;51.378;-1.342;2023-12-22T07:11:22;0;0;
67802;PMS5003;72185;51.378;-1.342;2023-12-22T07:13:48;0;0;
67802;PMS5003;72185;51.378;-1.342;2023-12-22T07:16:14;0;0;
67802;PMS5003;72185;51.378;-1.342;2023-12-22T07:18:39;0;0;
67802;PMS5003;72185;51.378;-1.342;2023-12-22T07:21:05;0;0;
67802;PMS5003;72185;51.378;-1.342;2023-12-22T07:23:30;0;0;
67802;PMS5003;72185;51.378;-1.342;2023-12-22T07:25:56;1;1;
67802;PMS5003;72185;51.378;-1.342;2023-12-22T07:28:21;0;0;
67802;PMS5003;72185;51.378;-1.342;2023-12-22T07:30:47;0;0;
67802;PMS5003;72185;51.378;-1.342;2023-12-22T07:33:12;0;0;
67802;PMS5003;72185;51.378;-1.342;2023-12-22T07:35:38;0;0;
67802;PMS5003;72185;51.378;-1.342;2023-12-22T07:38:04;0;0;
67802;PMS5003;72185;51.378;-1.342;2023-12-22T07:40:29;0;0;
67802;PMS5003;72185;51.378;-1.342;2023-12-22T07:42:55;0;0;
67802;PMS5003;72185;51.378;-1.342;2023-12-22T07:45:20;0;0;
67802;PMS5003;72185;51.378;-1.342;2023-12-22T07:47:46;0;0;
67802;PMS5003;72185;51.378;-1.342;2023-12-22T07:50:12;0;0;
67802;PMS5003;72185;51.378;-1.342;2023-12-22T07:52:37;0;0;
67802;PMS5003;72185;51.378;-1.342;2023-12-22T07:55:04;0;0;
67802;PMS5003;72185;51.378;-1.342;2023-12-22T07:57:28;0;0;
67802;PMS5003;72185;51.378;-1.342;2023-12-22T07:59:54;0;0;
67802;PMS5003;72185;51.378;-1.342;2023-12-22T08:02:19;1;0;
67802;PMS5003;72185;51.378;-1.342;2023-12-22T08:04:45;0;0;
67802;PMS5003;72185;51.378;-1.342;2023-12-22T08:07:11;0;0;
67802;PMS5003;72185;51.378;-1.342;2023-12-22T08:09:36;0;0;
67802;PMS5003;72185;51.378;-1.342;2023-12-22T08:12:02;0;0;
67802;PMS5003;72185;51.378;-1.342;2023-12-22T08:14:27;0;0;
67802;PMS5003;72185;51.378;-1.342;2023-12-22T08:16:53;0;0;
67802;PMS5003;72185;51.378;-1.342;2023-12-22T08:19:19;0;0;
67802;PMS5003;72185;51.378;-1.342;2023-12-22T08:21:44;0;0;
67802;PMS5003;72185;51.378;-1.342;2023-12-22T08:24:10;0;0;
67802;PMS5003;72185;51.378;-1.342;2023-12-22T08:26:36;0;0;
67802;PMS5003;72185;51.378;-1.342;2023-12-22T08:29:01;0;0;
67802;PMS5003;72185;51.378;-1.342;2023-12-22T08:31:27;0;0;
67802;PMS5003;72185;51.378;-1.342;2023-12-22T08:33:52;0;0;
67802;PMS5003;72185;51.378;-1.342;2023-12-22T08:36:18;0;0;
67802;PMS5003;72185;51.378;-1.342;2023-12-22T08:38:44;0;0;
67802;PMS5003;72185;51.378;-1.342;2023-12-22T08:41:09;0;0;
67802;PMS5003;72185;51.378;-1.342;2023-12-22T08:43:35;0;0;
67802;PMS5003;72185;51.378;-1.342;2023-12-22T08:46:00;0;0;
67802;PMS5003;72185;51.378;-1.342;2023-12-22T08:48:26;0;0;
67802;PMS5003;72185;51.378;-1.342;2023-12-22T08:50:52;0;0;
67802;PMS5003;72185;51.378;-1.342;2023-12-22T08:53:17;0;0;
67802;PMS5003;72185;51.378;-1.342;2023-12-22T08:55:43;0;0;
67802;PMS5003;72185;51.378;-1.342;2023-12-22T08:58:08;0;0;
67802;PMS5003;72185;51.378;-1.342;2023-12-22T09:00:34;1;0;
67802;PMS5003;72185;51.378;-1.342;2023-12-22T09:03:00;0;0;
67802;PMS5003;72185;51.378;-1.342;2023-12-22T09:05:25;0;0;
67802;PMS5003;72185;51.378;-1.342;2023-12-22T09:07:51;0;0;
67802;PMS5003;72185;51.378;-1.342;2023-12-22T09:10:17;0;0;
67802;PMS5003;72185;51.378;-1.342;2023-12-22T09:12:42;0;0;
67802;PMS5003;72185;51.378;-1.342;2023-12-22T09:15:08;1;1;
67802;PMS5003;72185;51.378;-1.342;2023-12-22T09:17:33;0;0;
67802;PMS5003;72185;51.378;-1.342;2023-12-22T09:19:59;0;0;
67802;PMS5003;72185;51.378;-1.342;2023-12-22T09:22:25;0;0;
67802;PMS5003;72185;51.378;-1.342;2023-12-22T09:24:50;1;1;
67802;PMS5003;72185;51.378;-1.342;2023-12-22T09:27:16;0;0;
67802;PMS5003;72185;51.378;-1.342;2023-12-22T09:29:41;0;0;
67802;PMS5003;72185;51.378;-1.342;2023-12-22T09:32:07;0;0;
67802;PMS5003;72185;51.378;-1.342;2023-12-22T09:34:32;0;0;
67802;PMS5003;72185;51.378;-1.342;2023-12-22T09:36:58;0;0;
67802;PMS5003;72185;51.378;-1.342;2023-12-22T09:39:24;1;1;
67802;PMS5003;72185;51.378;-1.342;2023-12-22T09:41:50;0;0;
67802;PMS5003;72185;51.378;-1.342;2023-12-22T09:44:15;2;1;
67802;PMS5003;72185;51.378;-1.342;2023-12-22T09:46:41;1;1;
67802;PMS5003;72185;51.378;-1.342;2023-12-22T09:49:06;0;0;
67802;PMS5003;72185;51.378;-1.342;2023-12-22T09:51:32;0;0;
67802;PMS5003;72185;51.378;-1.342;2023-12-22T09:53:57;1;1;
67802;PMS5003;72185;51.378;-1.342;2023-12-22T09:56:23;2;1;
67802;PMS5003;72185;51.378;-1.342;2023-12-22T09:58:48;1;0;
67802;PMS5003;72185;51.378;-1.342;2023-12-22T10:01:14;0;0;
67802;PMS5003;72185;51.378;-1.342;2023-12-22T10:03:39;1;0;
67802;PMS5003;72185;51.378;-1.342;2023-12-22T10:06:05;1;1;
67802;PMS5003;72185;51.378;-1.342;2023-12-22T10:08:30;1;0;
67802;PMS5003;72185;51.378;-1.342;2023-12-22T10:10:56;2;1;
67802;PMS5003;72185;51.378;-1.342;2023-12-22T10:13:22;2;2;
67802;PMS5003;72185;51.378;-1.342;2023-12-22T10:15:47;1;1;
67802;PMS5003;72185;51.378;-1.342;2023-12-22T10:18:13;3;3;
67802;PMS5003;72185;51.378;-1.342;2023-12-22T10:20:38;3;3;
67802;PMS5003;72185;51.378;-1.342;2023-12-22T10:23:04;3;3;
67802;PMS5003;72185;51.378;-1.342;2023-12-22T10:25:30;2;2;
67802;PMS5003;72185;51.378;-1.342;2023-12-22T10:27:55;2;2;
67802;PMS5003;72185;51.378;-1.342;2023-12-22T10:30:21;4;3;
67802;PMS5003;72185;51.378;-1.342;2023-12-22T10:32:47;3;3;
67802;PMS5003;72185;51.378;-1.342;2023-12-22T10:35:12;3;2;
67802;PMS5003;72185;51.378;-1.342;2023-12-22T10:37:38;3;3;
67802;PMS5003;72185;51.378;-1.342;2023-12-22T10:40:04;4;3;
67802;PMS5003;72185;51.378;-1.342;2023-12-22T10:42:29;3;3;
67802;PMS5003;72185;51.378;-1.342;2023-12-22T10:44:55;3;2;
67802;PMS5003;72185;51.378;-1.342;2023-12-22T10:47:20;1;1;
67802;PMS5003;72185;51.378;-1.342;2023-12-22T10:49:45;3;2;
67802;PMS5003;72185;51.378;-1.342;2023-12-22T10:52:15;3;2;
67802;PMS5003;72185;51.378;-1.342;2023-12-22T10:54:36;3;3;
67802;PMS5003;72185;51.378;-1.342;2023-12-22T10:57:02;5;3;
67802;PMS5003;72185;51.378;-1.342;2023-12-22T10:59:28;2;2;
67802;PMS5003;72185;51.378;-1.342;2023-12-22T11:01:53;1;1;
67802;PMS5003;72185;51.378;-1.342;2023-12-22T11:04:20;2;2;
67802;PMS5003;72185;51.378;-1.342;2023-12-22T11:06:44;2;2;
67802;PMS5003;72185;51.378;-1.342;2023-12-22T11:09:10;2;1;
67802;PMS5003;72185;51.378;-1.342;2023-12-22T11:11:36;1;1;
67802;PMS5003;72185;51.378;-1.342;2023-12-22T11:14:01;2;1;
67802;PMS5003;72185;51.378;-1.342;2023-12-22T11:16:27;1;1;
67802;PMS5003;72185;51.378;-1.342;2023-12-22T11:18:52;2;2;
67802;PMS5003;72185;51.378;-1.342;2023-12-22T11:21:18;1;1;
67802;PMS5003;72185;51.378;-1.342;2023-12-22T11:23:43;1;1;
67802;PMS5003;72185;51.378;-1.342;2023-12-22T11:26:09;1;1;
67802;PMS5003;72185;51.378;-1.342;2023-12-22T11:28:34;3;2;
67802;PMS5003;72185;51.378;-1.342;2023-12-22T11:31:00;2;2;
67802;PMS5003;72185;51.378;-1.342;2023-12-22T11:33:26;5;4;
67802;PMS5003;72185;51.378;-1.342;2023-12-22T11:35:51;3;2;
67802;PMS5003;72185;51.378;-1.342;2023-12-22T11:38:17;1;1;
67802;PMS5003;72185;51.378;-1.342;2023-12-22T11:40:42;1;1;
67802;PMS5003;72185;51.378;-1.342;2023-12-22T11:43:08;2;2;
67802;PMS5003;72185;51.378;-1.342;2023-12-22T11:45:33;1;1;
67802;PMS5003;72185;51.378;-1.342;2023-12-22T11:50:28;2;2;
67802;PMS5003;72185;51.378;-1.342;2023-12-22T11:52:50;1;1;
67802;PMS5003;72185;51.378;-1.342;2023-12-22T11:55:15;1;1;
67802;PMS5003;72185;51.378;-1.342;2023-12-22T11:57:41;2;1;
67802;PMS5003;72185;51.378;-1.342;2023-12-22T12:00:07;2;1;
67802;PMS5003;72185;51.378;-1.342;2023-12-22T12:02:32;1;1;
67802;PMS5003;72185;51.378;-1.342;2023-12-22T12:04:58;2;2;
67802;PMS5003;72185;51.378;-1.342;2023-12-22T12:09:48;0;0;
67802;PMS5003;72185;51.378;-1.342;2023-12-22T12:12:14;2;2;
67802;PMS5003;72185;51.378;-1.342;2023-12-22T12:14:41;1;1;
67802;PMS5003;72185;51.378;-1.342;2023-12-22T12:17:06;2;1;
67802;PMS5003;72185;51.378;-1.342;2023-12-22T12:19:31;1;1;
67802;PMS5003;72185;51.378;-1.342;2023-12-22T12:21:56;1;1;
67802;PMS5003;72185;51.378;-1.342;2023-12-22T12:24:22;1;1;
67802;PMS5003;72185;51.378;-1.342;2023-12-22T12:26:47;3;3;
67802;PMS5003;72185;51.378;-1.342;2023-12-22T12:29:13;1;0;
67802;PMS5003;72185;51.378;-1.342;2023-12-22T12:31:38;2;1;
67802;PMS5003;72185;51.378;-1.342;2023-12-22T12:34:04;1;1;
67802;PMS5003;72185;51.378;-1.342;2023-12-22T12:36:30;1;1;
67802;PMS5003;72185;51.378;-1.342;2023-12-22T12:38:57;3;2;
67802;PMS5003;72185;51.378;-1.342;2023-12-22T12:41:22;1;1;
67802;PMS5003;72185;51.378;-1.342;2023-12-22T12:43:46;1;1;
67802;PMS5003;72185;51.378;-1.342;2023-12-22T12:46:12;4;4;
67802;PMS5003;72185;51.378;-1.342;2023-12-22T12:48:38;3;2;
67802;PMS5003;72185;51.378;-1.342;2023-12-22T12:51:03;2;2;
67802;PMS5003;72185;51.378;-1.342;2023-12-22T12:53:29;2;2;
67802;PMS5003;72185;51.378;-1.342;2023-12-22T12:55:55;3;2;
67802;PMS5003;72185;51.378;-1.342;2023-12-22T12:58:20;2;2;
67802;PMS5003;72185;51.378;-1.342;2023-12-22T13:00:45;1;1;
67802;PMS5003;72185;51.378;-1.342;2023-12-22T13:03:11;1;1;
67802;PMS5003;72185;51.378;-1.342;2023-12-22T13:05:36;3;3;
67802;PMS5003;72185;51.378;-1.342;2023-12-22T13:10:27;2;1;
67802;PMS5003;72185;51.378;-1.342;2023-12-22T13:12:53;2;2;
67802;PMS5003;72185;51.378;-1.342;2023-12-22T13:15:18;2;2;
67802;PMS5003;72185;51.378;-1.342;2023-12-22T13:17:44;2;2;
67802;PMS5003;72185;51.378;-1.342;2023-12-22T13:20:10;2;2;
67802;PMS5003;72185;51.378;-1.342;2023-12-22T13:22:35;2;1;
67802;PMS5003;72185;51.378;-1.342;2023-12-22T13:25:01;1;1;
67802;PMS5003;72185;51.378;-1.342;2023-12-22T13:27:26;1;1;
67802;PMS5003;72185;51.378;-1.342;2023-12-22T13:29:52;4;4;
67802;PMS5003;72185;51.378;-1.342;2023-12-22T13:32:18;2;2;
67802;PMS5003;72185;51.378;-1.342;2023-12-22T13:34:47;1;1;
67802;PMS5003;72185;51.378;-1.342;2023-12-22T13:37:09;2;2;
67802;PMS5003;72185;51.378;-1.342;2023-12-22T13:39:34;2;1;
67802;PMS5003;72185;51.378;-1.342;2023-12-22T13:41:59;2;1;
67802;PMS5003;72185;51.378;-1.342;2023-12-22T13:44:25;4;3;
67802;PMS5003;72185;51.378;-1.342;2023-12-22T13:46:50;3;3;
67802;PMS5003;72185;51.378;-1.342;2023-12-22T13:49:16;2;2;
67802;PMS5003;72185;51.378;-1.342;2023-12-22T13:51:42;3;2;
67802;PMS5003;72185;51.378;-1.342;2023-12-22T13:54:07;2;2;
67802;PMS5003;72185;51.378;-1.342;2023-12-22T13:56:33;1;1;
67802;PMS5003;72185;51.378;-1.342;2023-12-22T13:58:58;3;3;
67802;PMS5003;72185;51.378;-1.342;2023-12-22T14:01:24;2;2;
67802;PMS5003;72185;51.378;-1.342;2023-12-22T14:03:49;1;1;
67802;PMS5003;72185;51.378;-1.342;2023-12-22T14:06:15;2;2;
67802;PMS5003;72185;51.378;-1.342;2023-12-22T14:08:40;5;4;
67802;PMS5003;72185;51.378;-1.342;2023-12-22T14:11:06;4;3;
67802;PMS5003;72185;51.378;-1.342;2023-12-22T14:13:31;2;2;
67802;PMS5003;72185;51.378;-1.342;2023-12-22T14:15:57;1;1;
67802;PMS5003;72185;51.378;-1.342;2023-12-22T14:18:22;2;2;
67802;PMS5003;72185;51.378;-1.342;2023-12-22T14:20:47;2;2;
67802;PMS5003;72185;51.378;-1.342;2023-12-22T14:23:13;1;1;
67802;PMS5003;72185;51.378;-1.342;2023-12-22T14:25:39;2;2;
67802;PMS5003;72185;51.378;-1.342;2023-12-22T14:28:04;1;1;
67802;PMS5003;72185;51.378;-1.342;2023-12-22T14:30:30;2;1;
67802;PMS5003;72185;51.378;-1.342;2023-12-22T14:32:55;3;3;
67802;PMS5003;72185;51.378;-1.342;2023-12-22T14:35:21;2;2;
67802;PMS5003;72185;51.378;-1.342;2023-12-22T14:37:46;2;2;
67802;PMS5003;72185;51.378;-1.342;2023-12-22T14:40:12;2;2;
67802;PMS5003;72185;51.378;-1.342;2023-12-22T14:42:38;3;3;
67802;PMS5003;72185;51.378;-1.342;2023-12-22T14:45:04;3;3;
67802;PMS5003;72185;51.378;-1.342;2023-12-22T14:47:29;4;3;
67802;PMS5003;72185;51.378;-1.342;2023-12-22T14:49:54;4;3;
67802;PMS5003;72185;51.378;-1.342;2023-12-22T14:52:20;2;2;
67802;PMS5003;72185;51.378;-1.342;2023-12-22T14:54:45;4;3;
67802;PMS5003;72185;51.378;-1.342;2023-12-22T14:57:11;4;4;
67802;PMS5003;72185;51.378;-1.342;2023-12-22T14:59:37;4;3;
67802;PMS5003;72185;51.378;-1.342;2023-12-22T15:02:02;4;3;
67802;PMS5003;72185;51.378;-1.342;2023-12-22T15:04:29;4;4;
67802;PMS5003;72185;51.378;-1.342;2023-12-22T15:06:53;4;4;
67802;PMS5003;72185;51.378;-1.342;2023-12-22T15:09:19;6;5;
67802;PMS5003;72185;51.378;-1.342;2023-12-22T15:11:45;5;4;
67802;PMS5003;72185;51.378;-1.342;2023-12-22T15:14:10;4;4;
67802;PMS5003;72185;51.378;-1.342;2023-12-22T15:16:38;5;5;
67802;PMS5003;72185;51.378;-1.342;2023-12-22T15:19:01;6;5;
67802;PMS5003;72185;51.378;-1.342;2023-12-22T15:21:26;5;5;
67802;PMS5003;72185;51.378;-1.342;2023-12-22T15:23:52;6;5;
67802;PMS5003;72185;51.378;-1.342;2023-12-22T15:26:21;5;5;
67802;PMS5003;72185;51.378;-1.342;2023-12-22T15:28:43;6;4;
67802;PMS5003;72185;51.378;-1.342;2023-12-22T15:31:08;7;5;
67802;PMS5003;72185;51.378;-1.342;2023-12-22T15:33:34;4;4;
67802;PMS5003;72185;51.378;-1.342;2023-12-22T15:35:59;5;4;
67802;PMS5003;72185;51.378;-1.342;2023-12-22T15:38:25;3;2;
67802;PMS5003;72185;51.378;-1.342;2023-12-22T15:40:50;5;5;
67802;PMS5003;72185;51.378;-1.342;2023-12-22T15:43:16;4;4;
67802;PMS5003;72185;51.378;-1.342;2023-12-22T15:45:41;6;5;
67802;PMS5003;72185;51.378;-1.342;2023-12-22T15:48:07;4;4;
67802;PMS5003;72185;51.378;-1.342;2023-12-22T15:50:32;3;3;
67802;PMS5003;72185;51.378;-1.342;2023-12-22T15:52:58;3;3;
67802;PMS5003;72185;51.378;-1.342;2023-12-22T15:55:24;4;4;
67802;PMS5003;72185;51.378;-1.342;2023-12-22T15:57:49;6;5;
67802;PMS5003;72185;51.378;-1.342;2023-12-22T16:00:15;6;4;
67802;PMS5003;72185;51.378;-1.342;2023-12-22T16:02:40;3;3;
67802;PMS5003;72185;51.378;-1.342;2023-12-22T16:05:06;3;2;
67802;PMS5003;72185;51.378;-1.342;2023-12-22T16:07:31;3;3;
67802;PMS5003;72185;51.378;-1.342;2023-12-22T16:09:57;4;3;
67802;PMS5003;72185;51.378;-1.342;2023-12-22T16:12:22;3;2;
67802;PMS5003;72185;51.378;-1.342;2023-12-22T16:14:48;2;2;
67802;PMS5003;72185;51.378;-1.342;2023-12-22T16:17:13;2;2;
67802;PMS5003;72185;51.378;-1.342;2023-12-22T16:19:39;2;2;
67802;PMS5003;72185;51.378;-1.342;2023-12-22T16:22:04;4;4;
67802;PMS5003;72185;51.378;-1.342;2023-12-22T16:24:30;1;1;
67802;PMS5003;72185;51.378;-1.342;2023-12-22T16:26:55;3;2;
67802;PMS5003;72185;51.378;-1.342;2023-12-22T16:29:21;3;3;
67802;PMS5003;72185;51.378;-1.342;2023-12-22T16:31:46;2;2;